sensor_id;sensor_type;location;lat;lon;timestamp;P1;P2;P0
14880;PMS7003;7533;51.278;12.588;2022-10-31T00:01:16;14.25;13.00;9.25
14880;PMS7003;7533;51.278;12.588;2022-10-31T00:06:20;16.00;13.25;9.50
14880;PMS7003;7533;51.278;12.588;2022-10-31T00:11:25;15.75;13.25;9.25
14880;PMS7003;7533;51.278;12.588;2022-10-31T00:16:28;15.50;13.00;9.75
14880;PMS7003;7533;51.278;12.588;2022-10-31T00:21:32;14.25;13.00;8.00
14880;PMS7003;7533;51.278;12.588;2022-10-31T00:26:36;13.50;11.75;8.75
14880;PMS7003;7533;51.278;12.588;2022-10-31T00:31:39;13.75;12.75;8.00
14880;PMS7003;7533;51.278;12.588;2022-10-31T00:36:42;16.00;13.25;8.50
14880;PMS7003;7533;51.278;12.588;2022-10-31T00:41:48;14.50;12.25;8.50
14880;PMS7003;7533;51.278;12.588;2022-10-31T00:46:51;13.75;12.00;8.00
14880;PMS7003;7533;51.278;12.588;2022-10-31T00:51:55;13.00;12.75;8.75
14880;PMS7003;7533;51.278;12.588;2022-10-31T00:56:59;15.00;13.75;8.75
14880;PMS7003;7533;51.278;12.588;2022-10-31T01:02:02;15.00;13.00;9.00
14880;PMS7003;7533;51.278;12.588;2022-10-31T01:07:05;12.25;12.00;8.50
14880;PMS7003;7533;51.278;12.588;2022-10-31T01:12:09;11.25;11.25;8.00
14880;PMS7003;7533;51.278;12.588;2022-10-31T01:17:13;12.00;11.75;8.25
14880;PMS7003;7533;51.278;12.588;2022-10-31T01:22:16;13.25;13.25;7.75
14880;PMS7003;7533;51.278;12.588;2022-10-31T01:27:20;10.25;9.75;7.50
14880;PMS7003;7533;51.278;12.588;2022-10-31T01:32:22;13.00;10.75;7.50
14880;PMS7003;7533;51.278;12.588;2022-10-31T01:37:25;12.50;12.50;9.00
14880;PMS7003;7533;51.278;12.588;2022-10-31T01:42:30;11.25;11.25;8.00
14880;PMS7003;7533;51.278;12.588;2022-10-31T01:47:34;14.50;12.75;7.25
14880;PMS7003;7533;51.278;12.588;2022-10-31T01:52:44;11.00;9.50;7.25
14880;PMS7003;7533;51.278;12.588;2022-10-31T01:57:50;11.00;10.25;7.50
14880;PMS7003;7533;51.278;12.588;2022-10-31T02:02:57;11.00;9.00;6.00
14880;PMS7003;7533;51.278;12.588;2022-10-31T02:08:02;12.00;11.25;6.75
14880;PMS7003;7533;51.278;12.588;2022-10-31T02:13:09;12.50;11.00;7.00
14880;PMS7003;7533;51.278;12.588;2022-10-31T02:18:19;12.50;11.00;6.75
14880;PMS7003;7533;51.278;12.588;2022-10-31T02:23:29;13.75;11.25;7.00
14880;PMS7003;7533;51.278;12.588;2022-10-31T02:35:00;12.50;12.00;7.00
14880;PMS7003;7533;51.278;12.588;2022-10-31T02:40:14;10.25;10.00;6.75
14880;PMS7003;7533;51.278;12.588;2022-10-31T02:45:54;11.75;10.25;7.75
14880;PMS7003;7533;51.278;12.588;2022-10-31T02:51:07;11.75;10.75;7.50
14880;PMS7003;7533;51.278;12.588;2022-10-31T02:56:12;13.00;12.00;7.00
14880;PMS7003;7533;51.278;12.588;2022-10-31T03:01:33;9.75;9.50;6.00
14880;PMS7003;7533;51.278;12.588;2022-10-31T03:06:52;8.50;8.50;7.00
14880;PMS7003;7533;51.278;12.588;2022-10-31T03:12:03;14.50;10.25;7.00
14880;PMS7003;7533;51.278;12.588;2022-10-31T03:17:13;9.75;9.75;7.75
14880;PMS7003;7533;51.278;12.588;2022-10-31T03:22:23;10.75;10.75;6.75
14880;PMS7003;7533;51.278;12.588;2022-10-31T03:27:32;10.25;9.75;6.00
14880;PMS7003;7533;51.278;12.588;2022-10-31T03:32:38;9.25;8.75;5.50
14880;PMS7003;7533;51.278;12.588;2022-10-31T03:37:45;10.00;9.00;5.50
14880;PMS7003;7533;51.278;12.588;2022-10-31T03:42:52;10.25;10.00;6.25
14880;PMS7003;7533;51.278;12.588;2022-10-31T03:48:00;7.75;7.00;5.50
14880;PMS7003;7533;51.278;12.588;2022-10-31T03:53:06;12.75;9.50;6.50
14880;PMS7003;7533;51.278;12.588;2022-10-31T03:58:15;8.00;7.50;6.75
14880;PMS7003;7533;51.278;12.588;2022-10-31T04:03:24;9.50;9.50;6.50
14880;PMS7003;7533;51.278;12.588;2022-10-31T04:08:33;9.75;9.00;6.75
14880;PMS7003;7533;51.278;12.588;2022-10-31T04:13:46;9.25;9.00;5.75
14880;PMS7003;7533;51.278;12.588;2022-10-31T04:18:55;9.25;9.25;5.25
14880;PMS7003;7533;51.278;12.588;2022-10-31T04:24:00;12.00;11.50;7.00
14880;PMS7003;7533;51.278;12.588;2022-10-31T04:29:04;11.00;10.00;6.00
14880;PMS7003;7533;51.278;12.588;2022-10-31T04:34:07;8.75;8.75;6.75
14880;PMS7003;7533;51.278;12.588;2022-10-31T04:39:11;9.50;8.50;6.00
14880;PMS7003;7533;51.278;12.588;2022-10-31T04:44:20;10.50;10.50;6.75
14880;PMS7003;7533;51.278;12.588;2022-10-31T04:49:25;12.25;8.50;6.00
14880;PMS7003;7533;51.278;12.588;2022-10-31T04:54:29;7.50;7.00;5.00
14880;PMS7003;7533;51.278;12.588;2022-10-31T04:59:52;10.00;7.50;6.00
14880;PMS7003;7533;51.278;12.588;2022-10-31T05:04:57;9.25;9.00;6.00
14880;PMS7003;7533;51.278;12.588;2022-10-31T05:10:01;9.50;8.75;6.00
14880;PMS7003;7533;51.278;12.588;2022-10-31T05:15:05;10.25;8.00;5.00
14880;PMS7003;7533;51.278;12.588;2022-10-31T05:20:31;7.00;7.00;5.00
14880;PMS7003;7533;51.278;12.588;2022-10-31T05:25:42;8.00;8.00;5.00
14880;PMS7003;7533;51.278;12.588;2022-10-31T05:30:45;10.25;8.00;5.50
14880;PMS7003;7533;51.278;12.588;2022-10-31T05:35:50;7.25;6.25;4.75
14880;PMS7003;7533;51.278;12.588;2022-10-31T05:41:09;9.25;9.25;5.50
14880;PMS7003;7533;51.278;12.588;2022-10-31T05:46:16;9.75;9.75;5.75
14880;PMS7003;7533;51.278;12.588;2022-10-31T05:51:39;7.75;7.25;4.50
14880;PMS7003;7533;51.278;12.588;2022-10-31T05:56:44;8.00;8.00;5.50
14880;PMS7003;7533;51.278;12.588;2022-10-31T06:01:47;9.00;8.25;5.00
14880;PMS7003;7533;51.278;12.588;2022-10-31T06:07:03;8.25;8.25;5.00
14880;PMS7003;7533;51.278;12.588;2022-10-31T06:12:08;8.50;8.50;6.00
14880;PMS7003;7533;51.278;12.588;2022-10-31T06:17:43;8.75;8.75;6.00
14880;PMS7003;7533;51.278;12.588;2022-10-31T06:22:58;9.25;9.25;6.50
14880;PMS7003;7533;51.278;12.588;2022-10-31T06:28:04;9.50;9.25;6.00
14880;PMS7003;7533;51.278;12.588;2022-10-31T06:33:23;9.00;8.00;6.00
14880;PMS7003;7533;51.278;12.588;2022-10-31T06:38:35;7.75;7.75;5.00
14880;PMS7003;7533;51.278;12.588;2022-10-31T06:43:42;9.25;9.25;6.75
14880;PMS7003;7533;51.278;12.588;2022-10-31T06:49:04;12.00;9.75;6.25
14880;PMS7003;7533;51.278;12.588;2022-10-31T06:54:23;7.75;7.50;5.75
14880;PMS7003;7533;51.278;12.588;2022-10-31T06:59:27;9.25;8.25;5.00
14880;PMS7003;7533;51.278;12.588;2022-10-31T07:04:52;9.75;7.75;5.25
14880;PMS7003;7533;51.278;12.588;2022-10-31T07:09:56;10.75;7.75;6.00
14880;PMS7003;7533;51.278;12.588;2022-10-31T07:15:19;10.00;10.00;7.00
14880;PMS7003;7533;51.278;12.588;2022-10-31T07:20:24;8.75;8.50;5.75
14880;PMS7003;7533;51.278;12.588;2022-10-31T07:25:26;11.75;9.00;5.50
14880;PMS7003;7533;51.278;12.588;2022-10-31T07:30:50;10.75;10.75;7.00
14880;PMS7003;7533;51.278;12.588;2022-10-31T07:35:54;8.50;8.50;6.25
14880;PMS7003;7533;51.278;12.588;2022-10-31T07:41:03;9.50;9.00;6.50
14880;PMS7003;7533;51.278;12.588;2022-10-31T07:46:12;9.25;9.00;7.00
14880;PMS7003;7533;51.278;12.588;2022-10-31T07:51:54;10.50;9.50;6.50
14880;PMS7003;7533;51.278;12.588;2022-10-31T07:57:20;9.00;9.00;7.00
14880;PMS7003;7533;51.278;12.588;2022-10-31T08:02:27;9.25;7.25;5.50
14880;PMS7003;7533;51.278;12.588;2022-10-31T08:07:47;12.00;10.00;7.00
14880;PMS7003;7533;51.278;12.588;2022-10-31T08:12:55;10.00;10.00;7.00
14880;PMS7003;7533;51.278;12.588;2022-10-31T08:18:00;11.50;10.25;7.50
14880;PMS7003;7533;51.278;12.588;2022-10-31T08:23:06;14.00;14.00;9.00
14880;PMS7003;7533;51.278;12.588;2022-10-31T08:28:12;18.25;15.25;10.75
14880;PMS7003;7533;51.278;12.588;2022-10-31T08:33:18;17.00;14.00;9.50
14880;PMS7003;7533;51.278;12.588;2022-10-31T08:38:53;16.00;14.25;8.75
14880;PMS7003;7533;51.278;12.588;2022-10-31T08:44:02;17.00;15.50;11.00
14880;PMS7003;7533;51.278;12.588;2022-10-31T08:49:07;12.75;11.50;8.00
14880;PMS7003;7533;51.278;12.588;2022-10-31T08:54:10;11.00;11.00;7.50
14880;PMS7003;7533;51.278;12.588;2022-10-31T08:59:36;12.25;12.00;9.00
14880;PMS7003;7533;51.278;12.588;2022-10-31T09:04:58;12.25;12.00;7.75
14880;PMS7003;7533;51.278;12.588;2022-10-31T09:10:02;14.25;12.25;7.25
14880;PMS7003;7533;51.278;12.588;2022-10-31T09:15:09;12.75;10.50;7.25
14880;PMS7003;7533;51.278;12.588;2022-10-31T09:20:21;11.75;11.00;7.00
14880;PMS7003;7533;51.278;12.588;2022-10-31T09:25:26;14.50;12.75;7.50
14880;PMS7003;7533;51.278;12.588;2022-10-31T09:30:58;11.50;9.75;6.00
14880;PMS7003;7533;51.278;12.588;2022-10-31T09:36:35;12.00;11.50;7.25
14880;PMS7003;7533;51.278;12.588;2022-10-31T09:41:46;13.50;9.50;8.00
14880;PMS7003;7533;51.278;12.588;2022-10-31T09:47:03;12.00;10.25;7.25
14880;PMS7003;7533;51.278;12.588;2022-10-31T09:52:22;12.75;11.00;6.75
14880;PMS7003;7533;51.278;12.588;2022-10-31T09:57:31;11.25;11.25;7.25
14880;PMS7003;7533;51.278;12.588;2022-10-31T10:02:37;15.25;14.00;9.00
14880;PMS7003;7533;51.278;12.588;2022-10-31T10:07:48;11.75;11.75;8.00
14880;PMS7003;7533;51.278;12.588;2022-10-31T10:18:54;12.50;12.50;8.00
14880;PMS7003;7533;51.278;12.588;2022-10-31T10:24:11;14.00;12.50;8.00
14880;PMS7003;7533;51.278;12.588;2022-10-31T10:29:27;12.25;11.25;7.75
14880;PMS7003;7533;51.278;12.588;2022-10-31T10:34:36;16.50;13.75;9.00
14880;PMS7003;7533;51.278;12.588;2022-10-31T10:39:48;14.00;13.00;9.00
14880;PMS7003;7533;51.278;12.588;2022-10-31T10:44:53;15.50;15.25;9.25
14880;PMS7003;7533;51.278;12.588;2022-10-31T10:50:14;18.50;15.00;9.00
14880;PMS7003;7533;51.278;12.588;2022-10-31T10:55:25;21.25;18.50;13.00
14880;PMS7003;7533;51.278;12.588;2022-10-31T11:00:38;27.75;24.50;15.00
14880;PMS7003;7533;51.278;12.588;2022-10-31T11:05:44;44.40;34.20;21.00
14880;PMS7003;7533;51.278;12.588;2022-10-31T11:10:57;33.20;30.00;18.20
14880;PMS7003;7533;51.278;12.588;2022-10-31T11:16:02;36.40;29.60;17.60
14880;PMS7003;7533;51.278;12.588;2022-10-31T11:21:19;37.00;29.00;18.00
14880;PMS7003;7533;51.278;12.588;2022-10-31T11:26:27;35.40;30.40;18.40
14880;PMS7003;7533;51.278;12.588;2022-10-31T11:31:30;37.00;30.80;18.20
14880;PMS7003;7533;51.278;12.588;2022-10-31T11:36:37;32.80;28.40;18.00
14880;PMS7003;7533;51.278;12.588;2022-10-31T11:41:43;34.80;30.60;18.20
14880;PMS7003;7533;51.278;12.588;2022-10-31T11:46:47;35.20;29.00;18.00
14880;PMS7003;7533;51.278;12.588;2022-10-31T11:51:53;36.00;29.20;17.60
14880;PMS7003;7533;51.278;12.588;2022-10-31T11:57:01;35.75;30.25;17.25
14880;PMS7003;7533;51.278;12.588;2022-10-31T12:02:14;33.50;27.25;16.75
14880;PMS7003;7533;51.278;12.588;2022-10-31T12:07:22;35.00;29.00;19.00
14880;PMS7003;7533;51.278;12.588;2022-10-31T12:23:44;34.40;30.60;17.80
14880;PMS7003;7533;51.278;12.588;2022-10-31T12:29:02;40.00;30.40;19.20
14880;PMS7003;7533;51.278;12.588;2022-10-31T12:34:31;37.60;29.40;18.00
14880;PMS7003;7533;51.278;12.588;2022-10-31T12:39:51;43.40;34.60;20.00
14880;PMS7003;7533;51.278;12.588;2022-10-31T12:50:47;35.00;29.25;18.75
14880;PMS7003;7533;51.278;12.588;2022-10-31T12:56:01;34.50;29.75;16.25
14880;PMS7003;7533;51.278;12.588;2022-10-31T13:01:15;29.00;25.75;14.00
14880;PMS7003;7533;51.278;12.588;2022-10-31T13:06:22;26.25;21.50;13.25
14880;PMS7003;7533;51.278;12.588;2022-10-31T13:11:31;27.00;25.00;14.75
14880;PMS7003;7533;51.278;12.588;2022-10-31T13:16:40;27.50;23.50;13.75
14880;PMS7003;7533;51.278;12.588;2022-10-31T13:21:49;24.75;22.00;15.75
14880;PMS7003;7533;51.278;12.588;2022-10-31T13:27:00;26.75;22.25;13.25
14880;PMS7003;7533;51.278;12.588;2022-10-31T13:32:11;24.75;21.50;15.00
14880;PMS7003;7533;51.278;12.588;2022-10-31T13:37:16;28.00;26.00;15.00
14880;PMS7003;7533;51.278;12.588;2022-10-31T13:42:34;28.00;24.25;15.50
14880;PMS7003;7533;51.278;12.588;2022-10-31T13:47:59;28.25;24.00;15.00
14880;PMS7003;7533;51.278;12.588;2022-10-31T13:53:09;26.50;22.00;13.75
14880;PMS7003;7533;51.278;12.588;2022-10-31T13:58:21;25.25;22.75;13.75
14880;PMS7003;7533;51.278;12.588;2022-10-31T14:03:28;25.50;22.00;12.00
14880;PMS7003;7533;51.278;12.588;2022-10-31T14:08:53;23.75;21.25;13.00
14880;PMS7003;7533;51.278;12.588;2022-10-31T14:13:56;23.50;21.50;11.75
14880;PMS7003;7533;51.278;12.588;2022-10-31T14:19:04;25.00;22.25;14.00
14880;PMS7003;7533;51.278;12.588;2022-10-31T14:24:13;25.50;21.25;12.75
14880;PMS7003;7533;51.278;12.588;2022-10-31T14:29:25;22.25;21.00;13.00
14880;PMS7003;7533;51.278;12.588;2022-10-31T14:34:32;22.75;20.25;13.50
14880;PMS7003;7533;51.278;12.588;2022-10-31T14:39:39;24.00;20.25;13.75
14880;PMS7003;7533;51.278;12.588;2022-10-31T14:50:35;21.25;20.00;13.00
14880;PMS7003;7533;51.278;12.588;2022-10-31T14:55:48;16.00;15.25;11.25
14880;PMS7003;7533;51.278;12.588;2022-10-31T15:00:55;19.25;19.25;12.75
14880;PMS7003;7533;51.278;12.588;2022-10-31T15:06:01;22.50;19.50;12.50
14880;PMS7003;7533;51.278;12.588;2022-10-31T15:11:11;21.75;18.50;13.00
14880;PMS7003;7533;51.278;12.588;2022-10-31T15:16:16;22.25;20.00;12.25
14880;PMS7003;7533;51.278;12.588;2022-10-31T15:21:23;24.00;21.75;13.00
14880;PMS7003;7533;51.278;12.588;2022-10-31T15:26:31;27.00;23.50;13.25
14880;PMS7003;7533;51.278;12.588;2022-10-31T15:31:37;22.75;20.25;13.00
14880;PMS7003;7533;51.278;12.588;2022-10-31T15:36:41;22.25;16.75;12.50
14880;PMS7003;7533;51.278;12.588;2022-10-31T15:41:47;22.00;18.50;13.50
14880;PMS7003;7533;51.278;12.588;2022-10-31T15:46:55;19.75;18.25;12.50
14880;PMS7003;7533;51.278;12.588;2022-10-31T15:52:06;21.00;19.50;12.50
14880;PMS7003;7533;51.278;12.588;2022-10-31T15:57:14;19.75;18.75;13.00
14880;PMS7003;7533;51.278;12.588;2022-10-31T16:02:18;23.25;21.25;12.25
14880;PMS7003;7533;51.278;12.588;2022-10-31T16:07:24;17.75;15.75;10.50
14880;PMS7003;7533;51.278;12.588;2022-10-31T16:12:31;20.50;19.00;12.25
14880;PMS7003;7533;51.278;12.588;2022-10-31T16:17:40;18.00;16.25;10.75
14880;PMS7003;7533;51.278;12.588;2022-10-31T16:22:48;20.00;17.00;12.00
14880;PMS7003;7533;51.278;12.588;2022-10-31T16:27:53;20.25;16.25;10.50
14880;PMS7003;7533;51.278;12.588;2022-10-31T16:32:59;17.00;16.00;11.00
14880;PMS7003;7533;51.278;12.588;2022-10-31T16:38:05;16.25;15.50;11.75
14880;PMS7003;7533;51.278;12.588;2022-10-31T16:43:10;16.75;14.75;8.75
14880;PMS7003;7533;51.278;12.588;2022-10-31T16:48:15;16.50;16.00;10.50
14880;PMS7003;7533;51.278;12.588;2022-10-31T16:53:21;20.00;15.50;10.75
14880;PMS7003;7533;51.278;12.588;2022-10-31T16:58:25;18.75;17.00;10.25
14880;PMS7003;7533;51.278;12.588;2022-10-31T17:03:30;19.25;17.00;11.00
14880;PMS7003;7533;51.278;12.588;2022-10-31T17:08:35;18.50;16.25;10.50
14880;PMS7003;7533;51.278;12.588;2022-10-31T17:13:37;15.25;14.75;10.00
14880;PMS7003;7533;51.278;12.588;2022-10-31T17:18:40;16.00;15.25;10.50
14880;PMS7003;7533;51.278;12.588;2022-10-31T17:23:45;21.00;16.00;10.50
14880;PMS7003;7533;51.278;12.588;2022-10-31T17:28:48;18.50;17.00;9.25
14880;PMS7003;7533;51.278;12.588;2022-10-31T17:33:52;14.50;14.00;9.00
14880;PMS7003;7533;51.278;12.588;2022-10-31T17:39:05;15.50;15.00;10.50
14880;PMS7003;7533;51.278;12.588;2022-10-31T17:44:10;17.50;16.50;11.00
14880;PMS7003;7533;51.278;12.588;2022-10-31T17:49:13;18.25;15.75;11.75
14880;PMS7003;7533;51.278;12.588;2022-10-31T17:54:17;15.00;14.25;10.00
14880;PMS7003;7533;51.278;12.588;2022-10-31T17:59:23;15.75;15.75;10.50
14880;PMS7003;7533;51.278;12.588;2022-10-31T18:04:26;15.50;15.50;10.00
14880;PMS7003;7533;51.278;12.588;2022-10-31T18:09:31;19.25;16.75;11.75
14880;PMS7003;7533;51.278;12.588;2022-10-31T18:14:33;16.00;15.25;10.00
14880;PMS7003;7533;51.278;12.588;2022-10-31T18:19:36;15.00;14.00;9.25
14880;PMS7003;7533;51.278;12.588;2022-10-31T18:24:40;16.00;15.25;10.00
14880;PMS7003;7533;51.278;12.588;2022-10-31T18:29:43;15.75;14.75;10.75
14880;PMS7003;7533;51.278;12.588;2022-10-31T18:34:46;15.50;13.75;9.75
14880;PMS7003;7533;51.278;12.588;2022-10-31T18:39:50;15.25;13.25;9.25
14880;PMS7003;7533;51.278;12.588;2022-10-31T18:44:53;18.75;15.75;11.00
14880;PMS7003;7533;51.278;12.588;2022-10-31T18:50:07;19.50;17.50;9.50
14880;PMS7003;7533;51.278;12.588;2022-10-31T18:55:11;14.25;14.25;9.00
14880;PMS7003;7533;51.278;12.588;2022-10-31T19:00:14;17.00;15.75;9.75
14880;PMS7003;7533;51.278;12.588;2022-10-31T19:05:19;16.25;14.00;8.50
14880;PMS7003;7533;51.278;12.588;2022-10-31T19:10:23;15.50;15.50;11.00
14880;PMS7003;7533;51.278;12.588;2022-10-31T19:15:26;14.50;13.25;9.75
14880;PMS7003;7533;51.278;12.588;2022-10-31T19:20:29;15.50;14.00;9.75
14880;PMS7003;7533;51.278;12.588;2022-10-31T19:25:33;20.00;17.50;11.00
14880;PMS7003;7533;51.278;12.588;2022-10-31T19:30:36;18.50;17.25;11.00
14880;PMS7003;7533;51.278;12.588;2022-10-31T19:35:39;15.75;15.50;11.00
14880;PMS7003;7533;51.278;12.588;2022-10-31T19:40:43;16.00;14.25;10.00
14880;PMS7003;7533;51.278;12.588;2022-10-31T19:45:52;16.25;15.50;11.75
14880;PMS7003;7533;51.278;12.588;2022-10-31T19:50:59;17.25;15.50;9.75
14880;PMS7003;7533;51.278;12.588;2022-10-31T19:56:08;18.00;16.25;11.00
14880;PMS7003;7533;51.278;12.588;2022-10-31T20:01:13;17.50;15.75;11.00
14880;PMS7003;7533;51.278;12.588;2022-10-31T20:06:20;15.75;15.75;11.00
14880;PMS7003;7533;51.278;12.588;2022-10-31T20:11:26;19.00;17.00;11.25
14880;PMS7003;7533;51.278;12.588;2022-10-31T20:16:29;17.50;16.25;10.25
14880;PMS7003;7533;51.278;12.588;2022-10-31T20:21:34;16.00;16.00;9.75
14880;PMS7003;7533;51.278;12.588;2022-10-31T20:26:40;18.00;16.25;11.00
14880;PMS7003;7533;51.278;12.588;2022-10-31T20:31:43;18.50;17.25;12.25
14880;PMS7003;7533;51.278;12.588;2022-10-31T20:36:47;18.25;17.00;11.00
14880;PMS7003;7533;51.278;12.588;2022-10-31T20:41:51;16.00;16.00;10.00
14880;PMS7003;7533;51.278;12.588;2022-10-31T20:46:54;18.00;15.50;11.25
14880;PMS7003;7533;51.278;12.588;2022-10-31T20:51:57;16.75;16.25;10.75
14880;PMS7003;7533;51.278;12.588;2022-10-31T20:57:02;18.00;14.50;11.25
14880;PMS7003;7533;51.278;12.588;2022-10-31T21:02:05;15.25;14.50;10.50
14880;PMS7003;7533;51.278;12.588;2022-10-31T21:07:08;15.75;15.75;10.75
14880;PMS7003;7533;51.278;12.588;2022-10-31T21:12:12;16.75;15.00;10.50
14880;PMS7003;7533;51.278;12.588;2022-10-31T21:17:15;17.00;15.25;11.00
14880;PMS7003;7533;51.278;12.588;2022-10-31T21:22:18;17.75;17.50;9.25
14880;PMS7003;7533;51.278;12.588;2022-10-31T21:27:22;18.50;16.75;10.75
14880;PMS7003;7533;51.278;12.588;2022-10-31T21:32:25;16.50;16.50;10.00
14880;PMS7003;7533;51.278;12.588;2022-10-31T21:37:27;17.50;14.75;11.00
14880;PMS7003;7533;51.278;12.588;2022-10-31T21:42:31;15.25;14.50;9.00
14880;PMS7003;7533;51.278;12.588;2022-10-31T21:47:34;16.75;15.50;11.75
14880;PMS7003;7533;51.278;12.588;2022-10-31T21:52:37;15.50;14.25;9.25
14880;PMS7003;7533;51.278;12.588;2022-10-31T21:57:41;16.50;15.25;10.75
14880;PMS7003;7533;51.278;12.588;2022-10-31T22:02:43;15.75;14.75;10.50
14880;PMS7003;7533;51.278;12.588;2022-10-31T22:07:46;15.50;11.25;8.00
14880;PMS7003;7533;51.278;12.588;2022-10-31T22:12:50;12.25;11.25;8.50
14880;PMS7003;7533;51.278;12.588;2022-10-31T22:17:53;18.00;17.25;9.75
14880;PMS7003;7533;51.278;12.588;2022-10-31T22:22:56;14.25;14.00;9.00
14880;PMS7003;7533;51.278;12.588;2022-10-31T22:28:00;15.75;14.75;10.00
14880;PMS7003;7533;51.278;12.588;2022-10-31T22:33:06;12.50;12.50;8.75
14880;PMS7003;7533;51.278;12.588;2022-10-31T22:38:09;15.00;13.75;9.00
14880;PMS7003;7533;51.278;12.588;2022-10-31T22:43:13;18.50;15.00;10.00
14880;PMS7003;7533;51.278;12.588;2022-10-31T22:48:16;15.50;14.75;10.00
14880;PMS7003;7533;51.278;12.588;2022-10-31T22:53:19;18.00;14.50;9.00
14880;PMS7003;7533;51.278;12.588;2022-10-31T22:58:23;15.00;12.00;8.00
14880;PMS7003;7533;51.278;12.588;2022-10-31T23:03:26;14.25;13.00;9.50
14880;PMS7003;7533;51.278;12.588;2022-10-31T23:08:29;14.50;14.25;8.50
14880;PMS7003;7533;51.278;12.588;2022-10-31T23:13:34;13.50;12.50;8.25
14880;PMS7003;7533;51.278;12.588;2022-10-31T23:18:55;13.25;12.50;9.25
14880;PMS7003;7533;51.278;12.588;2022-10-31T23:23:57;12.75;12.25;8.25
14880;PMS7003;7533;51.278;12.588;2022-10-31T23:29:01;14.00;13.75;9.25
14880;PMS7003;7533;51.278;12.588;2022-10-31T23:34:04;11.75;11.75;9.00
14880;PMS7003;7533;51.278;12.588;2022-10-31T23:39:07;13.00;10.75;8.25
14880;PMS7003;7533;51.278;12.588;2022-10-31T23:44:11;12.75;12.25;8.75
14880;PMS7003;7533;51.278;12.588;2022-10-31T23:49:14;14.00;12.50;8.25
14880;PMS7003;7533;51.278;12.588;2022-10-31T23:54:16;12.00;11.00;8.00
14880;PMS7003;7533;51.278;12.588;2022-10-31T23:59:20;14.00;13.00;8.75
